Shell Knob, MO (65747)

02:08 PM CDT del 31 Ottobre 2014 (GMT -0500)
Cruise Inn | Change Station
CLOSE
Current Station
Stazione meteo personale
Location: Kimberling City, MO
Altitudine: 1132 ft
Stazioni meteo nelle vicinanze
Avvisi attivi: Freeze Warning Notifica attiva: Public Information Statement

Alt. 1132 ft 36.60 °N, 93.42 °W | Updated 5 seconds ago

Sereno
Sereno
49.3 °F
Sembra 49 °F
N
3.1
Vento Variabile Vento da Ovest
Gusts 6.0 mph

Oggi
Massima -- | Minima -- °F
--% Possibilità di precip.
Ieri
Massima -- | Minima -- °F
Precip. -- in
7:36 AM 6:18 PM
Primo quarto, 58% visible
Pressione 30.33 in
Visibilità 10.0 miglia
Nuvole Sereno
Raffreddamento del vento 49 °F
Punto di rugiada 25 °F
Umidità 38%
Piovosità 0.00 in
Spessore del manto nevoso Non disponibile.
Raggi UV 1.0 fuori da 12
Polline .80 fuori da 12
Qualità dell'aria Non disponibile.
Flu Activity Non disponibile.
METAR KFWB 311855Z AUTO 01013G23KT 330V030 10SM CLR 09/M07 A3033 RMK AO2

More Conditions Fewer Conditions

Pressione 30.33 in
Visibilità 10.0 miglia
Nuvole Sereno
Raffreddamento del vento 49 °F
Punto di rugiada 25 °F
Umidità 38%
Piovosità 0.00 in
Spessore del manto nevoso Non disponibile.
Raggi UV 1.0 fuori da 12
Polline .80 fuori da 12
Qualità dell'aria Non disponibile.
Flu Activity Non disponibile.
METAR KFWB 311855Z AUTO 01013G23KT 330V030 10SM CLR 09/M07 A3033 RMK AO2

More Conditions Fewer Conditions

10-Day Weather Forecast

Almanac

Astronomia

Oct. 31, 2014 Alba Tramonto
Ora attuale
Crepuscolo civile
Crepuscolo nautico
Crepuscolo astronomico
Luna
Estensione della luce visibile
Lunghezza del giorno
Tomorrow will be .
, % of the Moon is Illuminated

Gli estremi di oggi

State Highs State Lows

Community

WunderPhotos

Upload Photos

1,766,696 foto caricate!

WunderBlogs® & News

Nearby

Qualità dell'aria

  Qualità dell'aria Indice AQ Inquinante
Not available.

Profondità neve

Stazione Profondità Altitudine

Attività sismica

Città  Distanza Mag. Data & Ora
Minimo Magnitudo Mostrato è 2.5.

Temperature delle acque costiere

Località Temperatura

Stazioni meteo nelle vicinanze